Portada
METAR-TAF:

METAR-TAF

Aeropuertos :

Wahoo, Nebraska, Estados Unidos

latitud: 41-14-26N, longitud: 096-35-40W, altitud: 373 m

Observación

El informe se hizo hace 31 minutos, a las 07:35 UTC
Viento 4 kt del este-sureste
Temperatura 15°C
Humedad 100%
Presión 1024 hPa
Visibilidad: 16.1 km
Nubes dispersas a una altura de 7000 ft
Cielo cubierto a una altura de 8000 ft

METAR: KAHQ 310735Z AUTO 12004KT 10SM SCT070 OVC080 15/15 A3023 RMK AO2 T01460145

Hora: 03:06 (08:06 UTC)


TAF: falta

Observaciones y pronósticos meteorológicos de más de 4000 aeropuertos (mensajes METAR y TAF).

Los puntos amarillos y rojos representan las estaciones disponibles.

Ponga el ratón en el punto deseado para ver el nombre de la estación.

Haga clic para ver las observaciones y los pronósticos meteorológicos.

Para cambiar el mapa : haga clic en los botones verdes con una cruz de color negro para hacer un zoom, en el botón verde con un guión para alejar o en las flechas verdes para mapas adyacentes.


METAR-TAF: